Time;durP1;ratioP1;P1;durP2;ratioP2;P2;SDS_P1;SDS_P2;PMS_P1;PMS_P2;Temp;Humidity;BMP_temperature;BMP_pressure;BME280_temperature;BME280_humidity;BME280_pressure;Samples;Min_cycle;Max_cycle;Signal;HPM_P1;HPM_P2
2022/03/29 00:02:04;;;;;;;2.77;2.57;;;22.50;46.20;;;;;;5080846;27;89347;-72
2022/03/29 00:04:32;;;;;;;5.60;2.73;;;22.50;46.20;;;;;;5081235;27;88612;-72
2022/03/29 00:07:00;;;;;;;4.67;2.67;;;22.50;46.20;;;;;;5080235;27;90659;-72
2022/03/29 00:09:28;;;;;;;4.47;3.20;;;22.50;46.20;;;;;;5069083;27;92783;-72
2022/03/29 00:11:56;;;;;;;3.93;2.87;;;22.50;46.90;;;;;;5066668;27;91011;-72
2022/03/29 00:14:24;;;;;;;3.00;2.53;;;22.50;46.20;;;;;;5081141;27;88300;-72
2022/03/29 00:16:53;;;;;;;4.30;2.97;;;22.50;46.20;;;;;;5077772;27;89535;-72
2022/03/29 00:19:22;;;;;;;4.37;2.73;;;22.50;46.20;;;;;;5080303;27;90045;-72
2022/03/29 00:21:50;;;;;;;4.53;3.17;;;22.40;46.10;;;;;;5078402;27;88400;-72
2022/03/29 00:24:18;;;;;;;5.30;3.87;;;22.40;46.00;;;;;;5080622;27;88504;-72
2022/03/29 00:26:46;;;;;;;2.90;2.57;;;22.40;46.00;;;;;;5078719;27;92241;-72
2022/03/29 00:29:14;;;;;;;4.33;3.17;;;22.40;46.00;;;;;;5080721;27;93295;-72
2022/03/29 00:31:42;;;;;;;4.87;2.90;;;22.50;46.10;;;;;;5066320;27;88890;-72
2022/03/29 00:34:10;;;;;;;4.13;2.70;;;22.40;46.00;;;;;;5068891;27;88622;-72
2022/03/29 00:36:40;;;;;;;4.03;2.93;;;22.40;46.00;;;;;;5075984;27;88576;-72
2022/03/29 00:39:08;;;;;;;3.97;2.73;;;22.40;46.00;;;;;;5059031;27;89095;-72
2022/03/29 00:41:36;;;;;;;4.83;3.30;;;22.40;45.90;;;;;;5060223;27;88360;-72
2022/03/29 00:44:05;;;;;;;3.77;3.10;;;22.40;46.00;;;;;;5061530;27;88548;-72
2022/03/29 00:46:34;;;;;;;4.30;2.87;;;22.40;45.90;;;;;;5067125;27;89496;-72
2022/03/29 00:49:02;;;;;;;4.17;3.23;;;22.40;45.90;;;;;;5059205;27;90079;-72
2022/03/29 00:51:30;;;;;;;4.07;3.57;;;22.40;46.50;;;;;;5059496;27;90004;-72
2022/03/29 00:53:59;;;;;;;4.00;3.07;;;22.40;45.90;;;;;;5061451;27;88453;-72
2022/03/29 00:56:27;;;;;;;4.03;3.43;;;22.30;45.80;;;;;;5060320;27;89520;-72
2022/03/29 00:58:55;;;;;;;6.23;3.20;;;22.30;45.80;;;;;;5071257;27;89001;-72
2022/03/29 01:01:24;;;;;;;4.00;2.93;;;22.30;45.80;;;;;;5067342;27;88493;-72
2022/03/29 01:03:52;;;;;;;4.27;3.37;;;22.30;45.80;;;;;;5078582;27;88451;-72
2022/03/29 01:06:20;;;;;;;4.40;2.70;;;22.30;45.70;;;;;;5079962;27;89321;-71
2022/03/29 01:08:48;;;;;;;4.37;3.23;;;22.30;45.70;;;;;;5079944;27;90075;-72
2022/03/29 01:11:18;;;;;;;4.60;3.33;;;22.30;45.70;;;;;;5079562;27;88527;-72
2022/03/29 01:13:46;;;;;;;6.57;2.93;;;22.30;45.70;;;;;;5063072;27;89076;-72
2022/03/29 01:18:59;;;;;;;4.70;3.20;;;22.30;46.40;;;;;;5059233;27;89446;-71
2022/03/29 01:21:30;;;;;;;5.00;3.63;;;22.30;45.70;;;;;;5075641;27;88518;-72
2022/03/29 01:24:00;;;;;;;5.27;3.70;;;22.30;45.70;;;;;;5079858;27;88712;-72
2022/03/29 01:26:28;;;;;;;3.87;3.30;;;22.30;45.70;;;;;;5077093;27;90611;-71
2022/03/29 01:28:56;;;;;;;4.40;3.33;;;22.30;45.70;;;;;;5077939;27;89088;-72
2022/03/29 01:31:24;;;;;;;4.57;3.50;;;22.30;46.40;;;;;;5064929;27;88571;-72
2022/03/29 01:33:52;;;;;;;4.83;3.57;;;22.30;45.70;;;;;;5059097;27;88423;-72
2022/03/29 01:36:19;;;;;;;6.10;3.77;;;22.20;45.70;;;;;;5068026;27;89402;-72
2022/03/29 01:38:47;;;;;;;5.17;3.83;;;22.30;45.70;;;;;;5060885;27;90488;-72
2022/03/29 01:41:17;;;;;;;5.73;3.57;;;22.20;45.60;;;;;;5058444;27;88573;-73
2022/03/29 01:43:45;;;;;;;7.00;3.83;;;22.20;45.60;;;;;;5058719;27;88666;-72
2022/03/29 01:46:13;;;;;;;3.77;3.47;;;22.20;45.60;;;;;;5069932;27;93503;-72
2022/03/29 01:48:41;;;;;;;3.80;2.83;;;22.20;45.60;;;;;;5078325;27;89293;-72
2022/03/29 01:51:10;;;;;;;4.30;3.57;;;22.20;45.60;;;;;;5077511;27;89216;-72
2022/03/29 01:53:38;;;;;;;5.43;3.23;;;22.20;45.60;;;;;;5079240;27;88467;-72
2022/03/29 01:56:08;;;;;;;3.60;3.10;;;22.20;45.60;;;;;;5078623;27;89585;-72
2022/03/29 01:58:38;;;;;;;4.67;3.43;;;22.20;45.60;;;;;;5077446;27;89312;-72
2022/03/29 02:01:07;;;;;;;3.43;2.93;;;22.20;45.60;;;;;;5077213;27;89311;-72
2022/03/29 02:03:35;;;;;;;5.10;3.57;;;22.20;45.60;;;;;;5082766;27;88357;-72
2022/03/29 02:06:03;;;;;;;6.77;3.27;;;22.20;45.60;;;;;;5082334;27;89767;-72
2022/03/29 02:08:32;;;;;;;4.67;2.97;;;22.20;45.60;;;;;;5067117;27;89212;-72
2022/03/29 02:11:00;;;;;;;4.80;3.30;;;22.20;45.60;;;;;;5063668;27;88734;-71
2022/03/29 02:13:28;;;;;;;4.87;2.90;;;22.20;45.60;;;;;;5062434;27;88698;-72
2022/03/29 02:15:57;;;;;;;4.43;3.23;;;22.10;45.50;;;;;;5065664;27;89608;-72
2022/03/29 02:18:25;;;;;;;4.17;3.03;;;22.10;45.50;;;;;;5079718;27;89580;-72
2022/03/29 02:20:54;;;;;;;4.37;3.00;;;22.10;45.50;;;;;;5061370;27;88534;-72
2022/03/29 02:23:22;;;;;;;6.13;3.50;;;22.20;45.60;;;;;;5063436;27;88557;-72
2022/03/29 02:25:50;;;;;;;4.43;3.20;;;22.10;45.50;;;;;;5062797;27;89523;-71
2022/03/29 02:28:17;;;;;;;4.97;3.90;;;22.10;45.50;;;;;;5082427;27;90109;-72
2022/03/29 02:30:46;;;;;;;4.90;3.50;;;22.10;45.50;;;;;;5081211;27;88388;-72
2022/03/29 02:33:16;;;;;;;4.70;3.17;;;22.10;46.20;;;;;;5082379;27;88630;-72
2022/03/29 02:35:44;;;;;;;4.90;2.97;;;22.10;45.50;;;;;;5081988;27;89721;-72
2022/03/29 02:38:13;;;;;;;5.37;3.47;;;22.10;45.50;;;;;;5082087;27;90131;-72
2022/03/29 02:40:41;;;;;;;4.93;3.40;;;22.10;45.50;;;;;;5081952;27;89988;-72
2022/03/29 02:43:09;;;;;;;5.00;3.10;;;22.10;45.50;;;;;;5074471;27;88538;-72
2022/03/29 02:45:37;;;;;;;4.13;3.37;;;22.10;45.50;;;;;;5061820;27;89461;-72
2022/03/29 02:48:06;;;;;;;3.83;3.03;;;22.00;45.30;;;;;;5079052;27;89589;-72
2022/03/29 02:50:35;;;;;;;5.80;3.40;;;22.10;45.50;;;;;;5081922;27;90770;-72
2022/03/29 02:53:04;;;;;;;5.27;2.87;;;22.00;45.40;;;;;;5064517;27;88553;-73
2022/03/29 02:55:33;;;;;;;4.17;3.23;;;22.10;45.50;;;;;;5061107;27;90647;-72
2022/03/29 02:58:01;;;;;;;3.50;2.90;;;22.00;45.30;;;;;;5073743;27;88358;-72
2022/03/29 03:00:29;;;;;;;3.37;3.03;;;22.10;45.40;;;;;;5081401;27;88550;-72
2022/03/29 03:02:58;;;;;;;5.70;3.07;;;22.00;45.30;;;;;;5079547;27;88507;-72
2022/03/29 03:05:26;;;;;;;4.10;3.20;;;22.10;45.40;;;;;;5082035;27;93990;-72
2022/03/29 03:07:56;;;;;;;3.10;2.80;;;22.10;45.40;;;;;;5081212;27;88735;-72
2022/03/29 03:10:25;;;;;;;3.93;2.90;;;22.00;45.30;;;;;;5081655;27;88487;-72
2022/03/29 03:12:53;;;;;;;5.23;3.07;;;22.00;45.40;;;;;;5061064;27;88239;-72
2022/03/29 03:15:22;;;;;;;3.63;2.77;;;22.00;45.30;;;;;;5061094;27;90591;-72
2022/03/29 03:17:51;;;;;;;4.60;2.93;;;22.00;45.30;;;;;;5074188;27;89195;-72
2022/03/29 03:20:21;;;;;;;4.97;3.37;;;22.00;45.30;;;;;;5081070;27;88840;-72
2022/03/29 03:22:49;;;;;;;3.87;3.13;;;22.00;45.20;;;;;;5062739;27;88520;-72
2022/03/29 03:25:19;;;;;;;5.30;3.20;;;22.00;45.30;;;;;;5071324;27;91661;-71
2022/03/29 03:27:47;;;;;;;8.13;3.90;;;22.00;45.20;;;;;;5080835;27;90104;-72
2022/03/29 03:30:16;;;;;;;3.97;2.90;;;22.00;45.20;;;;;;5081026;27;88660;-72
2022/03/29 03:32:44;;;;;;;4.63;3.40;;;22.00;45.90;;;;;;5061372;27;88395;-72
2022/03/29 03:35:17;;;;;;;4.93;3.43;;;22.00;45.20;;;;;;5060108;27;89206;-72
2022/03/29 03:37:45;;;;;;;5.33;3.20;;;22.00;45.20;;;;;;5060684;27;90015;-72
2022/03/29 03:40:14;;;;;;;4.23;3.37;;;21.90;45.10;;;;;;5079746;27;89070;-72
2022/03/29 03:42:43;;;;;;;4.50;3.83;;;21.90;45.10;;;;;;5079633;27;88560;-72
2022/03/29 03:45:11;;;;;;;6.10;3.97;;;21.90;45.10;;;;;;5080743;27;89545;-72
2022/03/29 03:47:39;;;;;;;5.13;3.30;;;21.90;45.10;;;;;;5064184;27;89528;-72
2022/03/29 03:50:08;;;;;;;4.17;3.27;;;21.90;45.10;;;;;;5073967;27;88989;-72
2022/03/29 03:52:36;;;;;;;5.83;3.40;;;21.90;45.10;;;;;;5068767;27;88590;-71
2022/03/29 03:55:05;;;;;;;6.83;3.73;;;21.90;45.10;;;;;;5080332;27;88571;-72
2022/03/29 03:57:33;;;;;;;5.90;3.03;;;21.90;45.10;;;;;;5078634;27;88404;-72
2022/03/29 04:00:03;;;;;;;5.13;3.33;;;21.90;45.10;;;;;;5081190;27;88250;-72
2022/03/29 04:02:31;;;;;;;5.23;3.93;;;21.80;45.00;;;;;;5075572;27;88640;-72
2022/03/29 04:04:59;;;;;;;8.90;3.50;;;21.90;45.00;;;;;;5070418;27;90105;-72
2022/03/29 04:07:27;;;;;;;3.20;2.90;;;21.80;44.90;;;;;;5071441;27;92466;-71
2022/03/29 04:09:55;;;;;;;4.80;3.57;;;21.80;44.90;;;;;;5059218;27;90197;-72
2022/03/29 04:12:23;;;;;;;4.33;3.33;;;21.80;44.90;;;;;;5060604;27;88736;-72
2022/03/29 04:14:51;;;;;;;4.63;3.67;;;21.80;44.90;;;;;;5060838;27;90135;-72
2022/03/29 04:17:20;;;;;;;7.27;3.63;;;21.80;44.90;;;;;;5059043;27;89951;-72
2022/03/29 04:19:48;;;;;;;3.53;2.77;;;21.80;44.90;;;;;;5060138;27;89688;-71
2022/03/29 04:22:18;;;;;;;4.93;3.83;;;21.80;44.90;;;;;;5068328;27;88520;-72
2022/03/29 04:24:46;;;;;;;5.77;3.20;;;21.80;44.80;;;;;;5058042;27;90873;-72
2022/03/29 04:27:14;;;;;;;5.37;3.97;;;21.80;44.80;;;;;;5059020;27;92705;-71
2022/03/29 04:29:42;;;;;;;14.77;8.07;;;21.80;44.80;;;;;;5057357;27;88659;-70
2022/03/29 04:32:10;;;;;;;17.80;8.73;;;21.70;44.60;;;;;;5070766;27;88590;-72
2022/03/29 04:34:40;;;;;;;16.30;8.67;;;21.50;45.10;;;;;;5075896;27;90796;-71
2022/03/29 04:37:08;;;;;;;12.90;7.57;;;21.30;44.40;;;;;;5072121;27;92615;-72
2022/03/29 04:39:38;;;;;;;13.40;6.90;;;21.10;44.50;;;;;;5059636;27;88774;-72
2022/03/29 04:42:07;;;;;;;12.20;6.83;;;21.10;44.70;;;;;;5070269;27;88517;-72
2022/03/29 04:44:36;;;;;;;8.37;5.07;;;21.10;44.70;;;;;;5079912;27;92478;-72
2022/03/29 04:47:07;;;;;;;10.80;6.23;;;21.10;44.70;;;;;;5080936;27;89449;-72
2022/03/29 04:49:35;;;;;;;9.77;6.40;;;21.20;44.70;;;;;;5080145;27;88291;-72
2022/03/29 04:52:10;;;;;;;9.67;5.80;;;21.20;44.60;;;;;;5079820;27;88481;-72
2022/03/29 04:54:38;;;;;;;9.13;5.43;;;21.30;44.60;;;;;;5079430;27;90918;-73
2022/03/29 04:57:06;;;;;;;8.57;6.00;;;21.30;44.60;;;;;;5079451;27;90122;-72
2022/03/29 04:59:34;;;;;;;9.83;5.73;;;21.30;44.60;;;;;;5079131;27;88804;-70
2022/03/29 05:02:02;;;;;;;7.77;4.53;;;21.30;44.50;;;;;;5079063;27;88900;-70
2022/03/29 05:04:31;;;;;;;6.83;4.47;;;21.40;44.60;;;;;;5077675;27;90546;-71
2022/03/29 05:07:00;;;;;;;8.97;4.57;;;21.40;44.60;;;;;;5079153;27;91188;-70
2022/03/29 05:09:30;;;;;;;8.90;5.20;;;21.40;44.60;;;;;;5067391;27;90246;-71
2022/03/29 05:11:59;;;;;;;5.77;4.17;;;21.50;44.70;;;;;;5068223;27;88635;-72
2022/03/29 05:14:27;;;;;;;7.40;4.50;;;21.50;44.80;;;;;;5076771;27;93753;-73
2022/03/29 05:16:55;;;;;;;6.87;4.87;;;21.60;44.90;;;;;;5079946;27;90081;-72
2022/03/29 05:19:23;;;;;;;7.23;4.33;;;21.60;44.90;;;;;;5079438;27;88710;-71
2022/03/29 05:21:51;;;;;;;10.43;4.63;;;21.60;45.00;;;;;;5079921;27;88362;-73
2022/03/29 05:24:19;;;;;;;6.63;4.57;;;21.60;45.00;;;;;;5068517;27;91509;-73
2022/03/29 05:26:48;;;;;;;6.23;4.27;;;21.60;45.00;;;;;;5059180;27;89994;-72
2022/03/29 05:29:18;;;;;;;9.67;4.40;;;21.60;45.10;;;;;;5070031;27;88445;-72
2022/03/29 05:31:46;;;;;;;8.00;4.37;;;21.70;45.20;;;;;;5065887;27;88397;-72
2022/03/29 05:34:14;;;;;;;5.17;4.03;;;21.70;45.90;;;;;;5075585;27;88587;-72
2022/03/29 05:36:45;;;;;;;7.30;3.97;;;21.70;45.30;;;;;;5071327;27;88581;-72
2022/03/29 05:39:14;;;;;;;6.37;3.83;;;21.70;45.30;;;;;;5063204;27;88382;-71
2022/03/29 05:41:42;;;;;;;6.77;4.43;;;21.70;45.30;;;;;;5077396;27;88625;-72
2022/03/29 05:44:11;;;;;;;7.37;4.20;;;21.70;45.30;;;;;;5083235;27;90771;-72
2022/03/29 05:49:26;;;;;;;5.57;3.77;;;21.70;45.50;;;;;;5083803;27;90499;-72
2022/03/29 05:51:54;;;;;;;4.73;3.30;;;21.70;45.50;;;;;;5083700;27;88500;-72
2022/03/29 05:54:22;;;;;;;5.30;3.50;;;21.90;45.60;;;;;;5064355;27;92519;-72
2022/03/29 05:56:50;;;;;;;5.70;4.00;;;21.70;45.60;;;;;;5061974;27;90029;-72
2022/03/29 05:59:19;;;;;;;8.63;4.37;;;21.70;45.60;;;;;;5061525;27;88782;-72
2022/03/29 06:01:47;;;;;;;5.70;3.27;;;21.70;45.60;;;;;;5062719;27;88674;-72
2022/03/29 06:04:17;;;;;;;5.53;3.37;;;21.70;45.60;;;;;;5061946;27;89372;-72
2022/03/29 06:06:45;;;;;;;6.93;3.93;;;21.70;45.60;;;;;;5061992;27;88796;-72
2022/03/29 06:09:13;;;;;;;7.23;3.90;;;21.70;45.60;;;;;;5067596;27;88953;-72
2022/03/29 06:11:41;;;;;;;5.53;3.70;;;21.70;45.60;;;;;;5082856;27;88473;-73
2022/03/29 06:14:10;;;;;;;5.37;3.63;;;21.70;46.30;;;;;;5080958;27;89538;-73
2022/03/29 06:16:40;;;;;;;4.43;3.47;;;21.70;45.70;;;;;;5061341;27;89183;-73
2022/03/29 06:19:08;;;;;;;5.83;3.83;;;21.70;45.70;;;;;;5060950;27;89750;-72
2022/03/29 06:21:36;;;;;;;8.03;3.23;;;21.60;45.60;;;;;;5062235;27;88467;-72
2022/03/29 06:24:05;;;;;;;4.97;3.23;;;21.60;45.60;;;;;;5061964;27;90583;-73
2022/03/29 06:26:33;;;;;;;5.13;3.40;;;21.60;46.20;;;;;;5061741;27;89639;-73
2022/03/29 06:29:01;;;;;;;6.30;3.30;;;21.70;45.60;;;;;;5064363;27;88964;-73
2022/03/29 06:31:29;;;;;;;9.73;3.27;;;21.60;45.60;;;;;;5082007;27;88637;-73
2022/03/29 06:33:58;;;;;;;6.20;4.17;;;21.60;45.60;;;;;;5081883;27;90386;-73
2022/03/29 06:36:26;;;;;;;5.33;3.13;;;21.60;45.60;;;;;;5081947;27;90104;-73
2022/03/29 06:38:54;;;;;;;6.57;3.60;;;21.60;45.50;;;;;;5081816;27;88876;-72
2022/03/29 06:41:22;;;;;;;4.83;3.13;;;21.60;45.50;;;;;;5079558;27;88682;-72
2022/03/29 06:43:50;;;;;;;5.60;3.30;;;21.60;45.50;;;;;;5079978;27;93380;-71
2022/03/29 06:46:18;;;;;;;4.90;2.97;;;21.70;45.60;;;;;;5081133;27;90153;-72
2022/03/29 06:48:46;;;;;;;4.23;3.17;;;21.60;45.60;;;;;;5065511;27;88552;-72
2022/03/29 06:51:17;;;;;;;6.17;2.97;;;21.70;45.60;;;;;;5062081;27;88504;-72
2022/03/29 06:53:45;;;;;;;5.17;4.10;;;21.70;45.70;;;;;;5081455;27;89428;-74
2022/03/29 06:56:15;;;;;;;5.40;2.90;;;21.70;45.70;;;;;;5082125;27;89650;-72
2022/03/29 06:58:43;;;;;;;6.93;4.70;;;21.70;45.70;;;;;;5081186;27;88947;-72
2022/03/29 07:01:11;;;;;;;7.30;4.33;;;21.70;45.70;;;;;;5082436;27;88523;-74
2022/03/29 07:03:40;;;;;;;6.80;4.37;;;21.70;45.70;;;;;;5084568;27;91035;-72
2022/03/29 07:06:09;;;;;;;4.57;3.47;;;21.60;45.70;;;;;;5082165;27;90208;-72
2022/03/29 07:11:16;;;;;;;6.97;4.03;;;21.60;45.80;;;;;;5081785;27;88425;-72
2022/03/29 07:11:48;;;;;;;5.10;3.90;;;21.60;45.90;;;;;;5081380;27;88548;-72
2022/03/29 07:14:16;;;;;;;5.90;3.60;;;21.60;45.90;;;;;;5080985;27;90003;-72
2022/03/29 07:16:45;;;;;;;4.87;3.07;;;21.60;46.00;;;;;;5076862;27;92499;-72
2022/03/29 07:19:13;;;;;;;4.10;2.87;;;21.60;46.00;;;;;;5080545;27;88491;-71
2022/03/29 07:21:43;;;;;;;7.70;3.50;;;21.60;46.00;;;;;;5080845;27;89488;-71
2022/03/29 07:24:13;;;;;;;4.77;3.20;;;21.60;46.00;;;;;;5080713;27;90058;-71
2022/03/29 07:26:41;;;;;;;5.10;3.40;;;21.60;46.00;;;;;;5081776;27;88333;-72
2022/03/29 07:29:14;;;;;;;6.23;4.20;;;21.60;46.00;;;;;;5081426;27;89106;-72
2022/03/29 07:31:42;;;;;;;4.40;3.43;;;21.60;46.00;;;;;;5064220;27;88544;-71
2022/03/29 07:34:10;;;;;;;5.37;2.80;;;21.60;46.00;;;;;;5070301;27;88606;-70
2022/03/29 07:36:38;;;;;;;8.10;3.73;;;21.60;46.00;;;;;;5060094;27;89441;-70
2022/03/29 07:39:06;;;;;;;4.80;3.40;;;21.60;46.00;;;;;;5061099;27;91889;-69
2022/03/29 07:41:35;;;;;;;6.60;3.07;;;21.50;46.00;;;;;;5060918;27;88501;-69
2022/03/29 07:44:04;;;;;;;6.83;3.20;;;21.60;46.00;;;;;;5061050;27;90716;-69
2022/03/29 07:46:32;;;;;;;5.60;3.37;;;21.50;45.80;;;;;;5060566;27;91866;-69
2022/03/29 07:49:00;;;;;;;7.93;2.73;;;21.60;45.90;;;;;;5060034;27;88983;-69
2022/03/29 07:51:48;;;;;;;7.47;3.47;;;21.60;45.90;;;;;;5060112;27;88858;-69
2022/03/29 07:54:17;;;;;;;7.63;4.30;;;21.60;45.90;;;;;;5060255;27;90740;-70
2022/03/29 07:56:48;;;;;;;6.77;3.60;;;21.50;45.70;;;;;;5060222;27;90038;-69
2022/03/29 07:59:16;;;;;;;4.77;3.03;;;21.50;45.70;;;;;;5059238;27;88863;-68
2022/03/29 08:01:44;;;;;;;8.23;4.20;;;21.50;45.70;;;;;;5060103;27;88275;-69
2022/03/29 08:04:12;;;;;;;6.50;2.90;;;21.50;45.60;;;;;;5059940;27;94018;-69
2022/03/29 08:06:40;;;;;;;6.27;3.93;;;21.50;45.60;;;;;;5059667;27;90002;-69
2022/03/29 08:09:09;;;;;;;7.43;3.70;;;21.50;45.60;;;;;;5060737;27;91926;-69
2022/03/29 08:11:38;;;;;;;4.33;3.47;;;21.50;46.20;;;;;;5060375;27;88380;-69
2022/03/29 08:14:08;;;;;;;9.20;3.97;;;21.50;45.50;;;;;;5042373;27;89446;-69
2022/03/29 08:16:38;;;;;;;7.53;3.30;;;21.50;45.40;;;;;;5060543;27;93026;-71
2022/03/29 08:19:08;;;;;;;5.13;3.50;;;21.50;45.40;;;;;;5059967;27;88719;-69
2022/03/29 08:21:52;;;;;;;8.97;3.67;;;21.50;45.40;;;;;;5060718;27;88482;-69
2022/03/29 08:24:22;;;;;;;4.77;2.93;;;21.50;45.30;;;;;;5060303;27;90703;-69
2022/03/29 08:26:52;;;;;;;4.60;3.30;;;21.50;45.30;;;;;;5059788;27;88986;-69
2022/03/29 08:29:29;;;;;;;6.93;3.73;;;21.50;45.30;;;;;;5059754;27;90164;-69
2022/03/29 08:31:57;;;;;;;3.73;2.93;;;21.50;45.30;;;;;;5060231;27;88435;-69
2022/03/29 08:34:25;;;;;;;5.60;3.30;;;21.50;45.20;;;;;;5059089;27;89845;-69
2022/03/29 08:36:53;;;;;;;4.57;3.43;;;21.50;45.20;;;;;;5059773;27;90044;-70
2022/03/29 08:39:21;;;;;;;5.57;2.97;;;21.40;45.10;;;;;;5060044;27;88870;-69
2022/03/29 08:41:51;;;;;;;4.00;3.17;;;21.50;45.10;;;;;;5060318;27;89153;-70
2022/03/29 08:44:19;;;;;;;3.77;3.03;;;21.50;45.10;;;;;;5059697;27;91216;-69
2022/03/29 08:46:49;;;;;;;4.43;3.17;;;21.40;45.00;;;;;;5059934;27;91647;-70
2022/03/29 08:49:17;;;;;;;4.67;2.93;;;21.40;45.00;;;;;;5059490;27;88924;-70
2022/03/29 08:51:45;;;;;;;3.83;2.93;;;21.40;45.00;;;;;;5059925;27;88464;-69
2022/03/29 08:54:13;;;;;;;4.43;2.93;;;21.40;44.90;;;;;;5059776;27;90283;-70
2022/03/29 08:56:41;;;;;;;5.10;3.27;;;21.40;45.00;;;;;;5058997;27;89500;-69
2022/03/29 08:59:10;;;;;;;3.60;2.70;;;21.40;44.90;;;;;;5059053;27;88931;-69
2022/03/29 09:01:38;;;;;;;4.83;3.17;;;21.40;44.90;;;;;;5059582;27;88463;-69
2022/03/29 09:04:09;;;;;;;4.20;2.73;;;21.40;44.90;;;;;;5059723;27;90925;-70
2022/03/29 09:06:56;;;;;;;4.80;3.43;;;21.40;44.90;;;;;;5059756;27;91907;-71
2022/03/29 09:09:25;;;;;;;6.03;3.53;;;21.40;44.90;;;;;;5059355;27;88495;-69
2022/03/29 09:11:54;;;;;;;4.70;3.60;;;21.40;44.80;;;;;;5062236;27;88572;-69
2022/03/29 09:17:23;;;;;;;5.17;3.47;;;21.40;44.80;;;;;;5062660;27;90124;-69
2022/03/29 09:19:52;;;;;;;4.93;3.03;;;21.40;44.80;;;;;;5063205;27;92389;-69
2022/03/29 09:22:35;;;;;;;5.80;3.60;;;21.40;44.70;;;;;;5062562;27;88620;-69
2022/03/29 09:25:04;;;;;;;4.23;2.90;;;21.40;44.70;;;;;;5062500;27;89429;-69
2022/03/29 09:27:34;;;;;;;6.77;3.97;;;21.40;44.60;;;;;;5062415;27;89990;-69
2022/03/29 09:30:14;;;;;;;4.73;3.33;;;21.40;44.60;;;;;;5062435;27;89423;-69
2022/03/29 09:32:54;;;;;;;5.83;3.33;;;21.40;44.60;;;;;;5063737;27;88288;-69
2022/03/29 09:35:24;;;;;;;4.93;2.87;;;21.40;44.60;;;;;;5062748;27;90584;-69
2022/03/29 09:37:52;;;;;;;4.73;3.33;;;21.40;44.60;;;;;;5062578;27;90447;-69
2022/03/29 09:40:20;;;;;;;4.37;2.77;;;21.40;44.50;;;;;;5061879;27;89071;-69
2022/03/29 09:43:01;;;;;;;3.67;2.97;;;21.40;44.50;;;;;;5062334;27;88710;-69
2022/03/29 09:45:43;;;;;;;6.13;3.80;;;21.40;44.50;;;;;;5062546;27;92387;-69
2022/03/29 09:48:28;;;;;;;5.57;2.97;;;21.40;44.50;;;;;;5062460;27;90152;-69
2022/03/29 09:50:59;;;;;;;5.43;3.53;;;21.40;44.40;;;;;;5062414;27;88434;-69
2022/03/29 09:53:37;;;;;;;5.77;3.60;;;21.40;44.40;;;;;;5062500;27;88613;-69
2022/03/29 09:56:06;;;;;;;6.83;3.17;;;21.40;44.40;;;;;;5061920;27;89961;-69
2022/03/29 09:58:34;;;;;;;4.90;3.93;;;21.40;44.40;;;;;;5062436;27;93030;-69
2022/03/29 10:01:02;;;;;;;4.73;3.37;;;21.40;44.40;;;;;;5062097;27;88296;-69
2022/03/29 10:03:31;;;;;;;4.90;3.23;;;21.40;44.30;;;;;;5062041;27;88593;-69
2022/03/29 10:06:04;;;;;;;4.40;2.43;;;21.40;44.30;;;;;;5062161;27;90567;-69
2022/03/29 10:11:21;;;;;;;6.60;3.37;;;21.40;44.20;;;;;;5062118;27;89901;-69
2022/03/29 10:13:49;;;;;;;7.07;3.37;;;21.40;44.20;;;;;;5062250;27;88604;-69
2022/03/29 10:16:18;;;;;;;4.40;3.50;;;21.40;44.20;;;;;;5062185;27;90489;-69
2022/03/29 10:18:46;;;;;;;5.00;3.47;;;21.50;44.30;;;;;;5061854;27;92933;-69
2022/03/29 10:21:16;;;;;;;5.17;3.30;;;21.40;44.10;;;;;;5062009;27;88803;-69
2022/03/29 10:23:45;;;;;;;5.77;3.43;;;21.40;44.10;;;;;;5061053;27;88626;-69
2022/03/29 10:26:17;;;;;;;5.37;3.70;;;21.40;44.10;;;;;;5062103;27;93915;-69
2022/03/29 10:28:46;;;;;;;5.20;4.00;;;21.40;44.00;;;;;;5061511;27;90230;-69
2022/03/29 10:31:27;;;;;;;5.33;3.70;;;21.50;44.10;;;;;;5061905;27;89096;-69
2022/03/29 10:34:16;;;;;;;5.10;3.10;;;21.40;44.00;;;;;;5061203;27;88481;-69
2022/03/29 10:37:16;;;;;;;7.53;3.40;;;21.50;44.00;;;;;;5061768;27;90318;-69
2022/03/29 10:39:54;;;;;;;5.93;3.67;;;21.50;43.90;;;;;;4998960;28;89353;-69
2022/03/29 10:42:37;;;;;;;5.47;3.40;;;21.50;43.90;;;;;;5052617;27;88853;-69
2022/03/29 10:45:12;;;;;;;5.33;3.70;;;21.50;43.90;;;;;;5061828;27;88509;-69
2022/03/29 10:48:09;;;;;;;4.83;3.80;;;21.50;43.80;;;;;;5061177;27;90379;-69
2022/03/29 10:50:58;;;;;;;5.23;3.30;;;21.50;43.80;;;;;;5060864;27;89849;-69
2022/03/29 10:53:29;;;;;;;6.50;3.90;;;21.50;43.80;;;;;;5061882;27;88165;-68
2022/03/29 10:56:23;;;;;;;7.07;4.10;;;21.50;43.70;;;;;;5061688;27;88236;-69
2022/03/29 10:59:15;;;;;;;4.70;3.57;;;21.50;43.70;;;;;;5046285;27;90594;-69
2022/03/29 11:01:43;;;;;;;6.37;3.90;;;21.50;43.70;;;;;;5045659;27;90140;-69
2022/03/29 11:04:17;;;;;;;6.00;3.27;;;21.50;43.60;;;;;;5061348;27;89281;-69
2022/03/29 11:07:10;;;;;;;5.40;3.23;;;21.50;43.60;;;;;;5061885;27;88403;-69
2022/03/29 11:09:41;;;;;;;5.87;3.70;;;21.50;43.70;;;;;;5046377;27;90826;-69
2022/03/29 11:12:39;;;;;;;5.97;3.87;;;21.50;43.60;;;;;;5061006;27;92279;-69
2022/03/29 11:15:48;;;;;;;7.90;3.77;;;21.50;43.60;;;;;;5061700;27;91582;-69
2022/03/29 11:18:49;;;;;;;5.93;3.77;;;21.50;43.60;;;;;;5058538;27;88698;-69
2022/03/29 11:21:39;;;;;;;6.30;4.07;;;21.50;43.60;;;;;;5060521;27;91118;-69
2022/03/29 11:24:15;;;;;;;5.50;3.47;;;21.50;43.60;;;;;;5052958;27;89910;-69
2022/03/29 11:26:59;;;;;;;14.47;3.90;;;21.50;43.50;;;;;;5060726;27;88332;-69
2022/03/29 11:29:30;;;;;;;5.77;3.83;;;21.40;43.40;;;;;;5060700;27;88387;-69
2022/03/29 11:32:01;;;;;;;4.60;3.40;;;21.50;43.50;;;;;;5060668;27;88600;-69
2022/03/29 11:34:37;;;;;;;4.77;3.47;;;21.40;43.40;;;;;;5059900;27;90377;-69
2022/03/29 11:37:05;;;;;;;5.73;3.60;;;21.40;43.40;;;;;;5060941;27;90755;-69
2022/03/29 11:39:34;;;;;;;5.07;3.53;;;21.40;43.40;;;;;;5060843;27;88466;-69
2022/03/29 11:42:03;;;;;;;5.23;4.10;;;21.40;44.00;;;;;;5060621;27;90689;-69
2022/03/29 11:44:31;;;;;;;6.03;4.50;;;21.40;43.30;;;;;;5060840;27;91937;-69
2022/03/29 11:46:59;;;;;;;6.57;4.23;;;21.40;43.30;;;;;;5060274;27;88502;-69
2022/03/29 11:49:27;;;;;;;6.37;3.57;;;21.40;43.30;;;;;;5059839;27;88724;-69
2022/03/29 11:52:06;;;;;;;6.20;3.80;;;21.40;43.30;;;;;;5060733;27;89039;-69
2022/03/29 11:54:40;;;;;;;4.87;3.80;;;21.40;43.20;;;;;;5060605;27;89976;-69
2022/03/29 11:57:27;;;;;;;6.37;4.23;;;21.50;43.30;;;;;;5060613;27;88409;-69
2022/03/29 11:59:56;;;;;;;5.67;3.17;;;21.50;43.30;;;;;;5060846;27;88202;-69
2022/03/29 12:02:25;;;;;;;6.83;3.53;;;21.50;43.20;;;;;;5060281;27;93512;-69
2022/03/29 12:04:54;;;;;;;6.87;3.47;;;21.50;43.20;;;;;;5060275;27;90083;-69
2022/03/29 12:07:35;;;;;;;6.13;4.50;;;21.60;43.20;;;;;;5060462;27;90942;-69
2022/03/29 12:10:03;;;;;;;4.67;3.53;;;21.50;43.20;;;;;;5060195;27;89272;-69
2022/03/29 12:12:32;;;;;;;6.23;3.60;;;21.60;43.20;;;;;;5060017;27;90209;-69
2022/03/29 12:15:02;;;;;;;4.83;3.30;;;21.60;43.20;;;;;;5060224;27;89513;-69
2022/03/29 12:17:31;;;;;;;5.63;3.70;;;21.60;43.20;;;;;;5060191;27;88880;-69
2022/03/29 12:19:58;;;;;;;5.07;3.47;;;21.60;43.20;;;;;;5060218;27;88460;-69
2022/03/29 12:22:27;;;;;;;7.83;4.13;;;21.60;43.10;;;;;;5060781;27;88973;-69
2022/03/29 12:24:55;;;;;;;9.13;4.13;;;21.60;43.10;;;;;;5059911;27;89969;-69
2022/03/29 12:27:23;;;;;;;4.73;3.40;;;21.60;43.10;;;;;;5060163;27;88734;-69
2022/03/29 12:29:56;;;;;;;4.53;3.60;;;21.60;43.10;;;;;;5060627;27;88499;-69
2022/03/29 12:32:24;;;;;;;5.30;3.50;;;21.60;43.10;;;;;;5059688;27;93354;-69
2022/03/29 12:34:56;;;;;;;5.43;3.77;;;21.60;43.10;;;;;;5059671;27;89707;-69
2022/03/29 12:37:24;;;;;;;5.63;3.30;;;21.60;43.10;;;;;;5059539;27;88919;-69
2022/03/29 12:39:54;;;;;;;5.43;3.47;;;21.60;43.70;;;;;;5060293;27;88628;-69
2022/03/29 12:42:22;;;;;;;5.77;3.50;;;21.60;43.00;;;;;;5059812;27;90729;-70
2022/03/29 12:44:55;;;;;;;6.53;4.13;;;21.60;43.00;;;;;;5058875;27;90270;-69
2022/03/29 12:47:24;;;;;;;6.53;3.80;;;21.60;43.00;;;;;;5059627;27;89874;-69
2022/03/29 12:49:52;;;;;;;5.77;3.97;;;21.60;43.00;;;;;;5059516;27;88408;-69
2022/03/29 12:52:21;;;;;;;6.00;3.53;;;21.60;43.00;;;;;;5059331;27;90664;-69
2022/03/29 12:54:49;;;;;;;5.87;3.73;;;21.60;43.00;;;;;;5059098;27;89404;-69
2022/03/29 12:57:18;;;;;;;5.10;3.50;;;21.60;43.00;;;;;;5059484;27;91916;-69
2022/03/29 12:59:47;;;;;;;6.47;3.77;;;21.60;43.00;;;;;;5059411;27;88432;-69
2022/03/29 13:02:18;;;;;;;4.27;2.90;;;21.60;43.00;;;;;;5059998;27;92064;-69
2022/03/29 13:04:48;;;;;;;4.30;3.47;;;21.60;43.00;;;;;;5059594;27;90454;-69
2022/03/29 13:07:32;;;;;;;5.47;3.90;;;21.60;42.90;;;;;;5059698;27;88547;-69
2022/03/29 13:10:03;;;;;;;6.20;3.30;;;21.60;42.90;;;;;;5057861;27;88590;-69
2022/03/29 13:13:06;;;;;;;6.30;3.50;;;21.70;42.90;;;;;;5059157;27;90057;-69
2022/03/29 13:15:36;;;;;;;7.73;3.80;;;21.70;42.90;;;;;;5058673;27;90441;-69